createdAt,value
2018-09-22T09:32:08.263Z,12.77
2018-09-22T09:34:38.164Z,12.87
2018-09-22T09:37:07.377Z,16.10
2018-09-22T09:39:36.863Z,16.37
2018-09-22T09:42:05.704Z,14.07
2018-09-22T09:44:36.146Z,15.03
2018-09-22T09:47:06.920Z,14.87
2018-09-22T09:49:36.100Z,11.50
2018-09-22T09:52:08.201Z,14.67
2018-09-22T09:54:38.181Z,12.47
2018-09-22T09:57:08.943Z,15.80
2018-09-22T09:59:38.998Z,12.23
2018-09-22T10:02:09.182Z,16.70
2018-09-22T10:04:38.342Z,12.77
2018-09-22T10:07:11.463Z,15.00
2018-09-22T10:09:41.009Z,15.17
2018-09-22T10:12:10.510Z,15.53
2018-09-22T10:14:40.845Z,12.87
2018-09-22T10:17:10.714Z,10.47
2018-09-22T10:19:43.506Z,13.23
2018-09-22T10:22:15.330Z,7.83
2018-09-22T10:24:44.295Z,12.03
2018-09-22T10:27:14.302Z,14.60
2018-09-22T10:29:45.299Z,13.93
2018-09-22T10:32:14.714Z,12.23
2018-09-22T10:34:44.366Z,14.30
2018-09-22T10:37:14.736Z,11.37
2018-09-22T10:39:44.515Z,13.23
2018-09-22T10:42:13.372Z,12.43
2018-09-22T10:44:43.238Z,11.80
2018-09-22T10:47:12.623Z,14.20
2018-09-22T10:49:43.092Z,12.63
2018-09-22T10:52:12.810Z,13.70
2018-09-22T10:54:44.574Z,12.13
2018-09-22T10:57:14.796Z,12.60
2018-09-22T10:59:44.979Z,13.30
2018-09-22T11:02:15.780Z,14.23
2018-09-22T11:04:45.323Z,16.73
2018-09-22T11:07:15.653Z,15.97
2018-09-22T11:09:44.468Z,13.10
2018-09-22T11:21:31.733Z,11.10
2018-09-22T11:26:37.839Z,11.13
2018-09-22T11:29:06.670Z,14.20
2018-09-22T11:31:37.107Z,16.73
2018-09-22T11:34:06.574Z,11.07
2018-09-22T11:36:36.694Z,11.87
2018-09-22T11:39:08.885Z,10.47
2018-09-22T11:41:38.178Z,9.90
2018-09-22T11:44:27.952Z,15.87
2018-09-22T11:46:57.543Z,12.00
2018-09-22T11:49:27.954Z,12.30
2018-09-22T11:52:02.424Z,12.23
2018-09-22T11:54:36.108Z,11.60
2018-09-22T11:57:05.592Z,8.43
2018-09-22T11:59:36.748Z,9.97
2018-09-22T12:02:05.703Z,10.23
2018-09-22T12:04:38.383Z,8.07
2018-09-22T12:07:08.250Z,5.60
2018-09-22T12:09:38.162Z,11.30
2018-09-22T12:12:11.972Z,3.47
2018-09-22T12:14:42.128Z,9.70
2018-09-22T12:17:11.322Z,7.33
2018-09-22T12:19:40.515Z,7.10
2018-09-22T12:22:11.152Z,4.53
2018-09-22T12:24:40.783Z,8.43
2018-09-22T12:27:10.280Z,6.93
2018-09-22T12:29:43.315Z,13.53
2018-09-22T12:32:18.798Z,11.93
2018-09-22T12:34:48.344Z,16.10
2018-09-22T12:37:17.070Z,5.50
2018-09-22T12:39:45.754Z,7.90
2018-09-22T12:42:17.866Z,15.27
2018-09-22T12:44:47.615Z,2.80
2018-09-22T12:47:16.874Z,3.70
2018-09-22T12:50:01.084Z,2.03
2018-09-22T12:52:39.028Z,1.53
2018-09-22T12:55:08.332Z,5.17
2018-09-22T12:57:38.630Z,3.43
2018-09-22T13:00:08.160Z,3.60
2018-09-22T13:02:37.992Z,3.20
2018-09-22T13:05:07.820Z,3.27
2018-09-22T13:07:38.053Z,3.73
2018-09-22T13:10:09.569Z,3.53
2018-09-22T13:12:49.442Z,3.67
2018-09-22T13:15:24.350Z,7.40
2018-09-22T13:17:55.486Z,5.77
2018-09-22T13:20:25.291Z,4.80
2018-09-22T13:22:55.934Z,14.83
2018-09-22T13:25:24.514Z,8.17
2018-09-22T13:27:53.958Z,6.03
2018-09-22T13:30:24.222Z,11.00
2018-09-22T20:14:03.905Z,21.70
2018-09-22T20:16:33.454Z,19.63
2018-09-22T20:19:02.648Z,25.20
2018-09-22T20:21:32.310Z,31.87
2018-09-22T20:24:03.033Z,32.77
2018-09-22T20:26:32.734Z,27.57
2018-09-22T20:29:02.306Z,29.47
2018-09-22T20:31:33.825Z,30.47
2018-09-22T20:34:06.519Z,33.60
2018-09-22T21:34:09.320Z,24.10
2018-09-22T21:36:38.113Z,23.37
2018-09-22T21:39:15.912Z,31.97
